Terminal Aerodrome Forecast
Issued by NWS

Home | Current Version | Previous Version | Graphics & Text | Print | Product List | Glossary On
Versions: 1 2 3 4 5 6 7 8 9 10 11 12 13 14 15 16 17 18 19 20 21 22 23
000
FTUS43 KGRB 211625 AAA
TAFRHI
TAF AMD
KRHI 211625Z 2116/2212 11005KT 3/4SM -RA BR OVC003
      TEMPO 2118/2122 1/4SM -DZ FG VV002
     FM220000 VRB03KT 1/4SM -DZ FG OVC001=

USA.gov is the U.S. government's official web portal to all federal, state and local government web resources and services.